sensor_id;sensor_type;location;lat;lon;timestamp;pressure;altitude;pressure_sealevel;temperature;humidity
11621;BME280;5866;49.094;11.900;2023-03-11T00:00:06;94640.47;;;2.25;80.86
11621;BME280;5866;49.094;11.900;2023-03-11T00:02:38;94623.13;;;2.24;78.06
11621;BME280;5866;49.094;11.900;2023-03-11T00:05:07;94624.41;;;2.20;78.40
11621;BME280;5866;49.094;11.900;2023-03-11T00:07:34;94634.06;;;2.20;80.29
11621;BME280;5866;49.094;11.900;2023-03-11T00:10:08;94609.16;;;2.16;77.92
11621;BME280;5866;49.094;11.900;2023-03-11T00:12:35;94648.78;;;2.21;80.16
11621;BME280;5866;49.094;11.900;2023-03-11T00:15:04;94659.00;;;2.14;78.58
11621;BME280;5866;49.094;11.900;2023-03-11T00:17:31;94664.31;;;2.22;80.48
11621;BME280;5866;49.094;11.900;2023-03-11T00:19:59;94668.88;;;2.20;81.58
11621;BME280;5866;49.094;11.900;2023-03-11T00:22:26;94671.81;;;2.17;81.76
11621;BME280;5866;49.094;11.900;2023-03-11T00:24:54;94671.06;;;2.07;82.09
11621;BME280;5866;49.094;11.900;2023-03-11T00:27:23;94672.25;;;2.13;82.29
11621;BME280;5866;49.094;11.900;2023-03-11T00:29:50;94682.03;;;2.11;81.56
11621;BME280;5866;49.094;11.900;2023-03-11T00:32:18;94689.34;;;2.07;80.41
11621;BME280;5866;49.094;11.900;2023-03-11T00:34:45;94685.09;;;2.06;80.94
11621;BME280;5866;49.094;11.900;2023-03-11T00:37:13;94692.25;;;2.04;78.57
11621;BME280;5866;49.094;11.900;2023-03-11T00:39:41;94689.81;;;2.03;79.31
11621;BME280;5866;49.094;11.900;2023-03-11T00:42:08;94688.28;;;2.00;79.69
11621;BME280;5866;49.094;11.900;2023-03-11T00:44:37;94698.16;;;2.06;80.82
11621;BME280;5866;49.094;11.900;2023-03-11T00:47:04;94716.19;;;2.09;79.23
11621;BME280;5866;49.094;11.900;2023-03-11T00:49:32;94710.78;;;2.11;80.85
11621;BME280;5866;49.094;11.900;2023-03-11T00:52:00;94696.50;;;2.05;79.83
11621;BME280;5866;49.094;11.900;2023-03-11T00:54:27;94700.38;;;2.01;78.46
11621;BME280;5866;49.094;11.900;2023-03-11T00:56:55;94726.84;;;1.98;80.87
11621;BME280;5866;49.094;11.900;2023-03-11T00:59:23;94722.72;;;1.96;79.37
11621;BME280;5866;49.094;11.900;2023-03-11T01:01:52;94747.00;;;1.88;80.61
11621;BME280;5866;49.094;11.900;2023-03-11T01:04:19;94725.97;;;1.80;80.08
11621;BME280;5866;49.094;11.900;2023-03-11T01:06:47;94706.44;;;1.84;79.17
11621;BME280;5866;49.094;11.900;2023-03-11T01:09:14;94749.72;;;1.87;82.26
11621;BME280;5866;49.094;11.900;2023-03-11T01:11:42;94745.34;;;1.87;79.52
11621;BME280;5866;49.094;11.900;2023-03-11T01:14:10;94731.06;;;1.82;79.67
11621;BME280;5866;49.094;11.900;2023-03-11T01:16:37;94753.09;;;1.79;80.18
11621;BME280;5866;49.094;11.900;2023-03-11T01:19:06;94738.50;;;1.77;81.42
11621;BME280;5866;49.094;11.900;2023-03-11T01:21:34;94744.03;;;1.74;80.55
11621;BME280;5866;49.094;11.900;2023-03-11T01:24:01;94765.88;;;1.82;80.14
11621;BME280;5866;49.094;11.900;2023-03-11T01:26:29;94757.47;;;1.79;80.97
11621;BME280;5866;49.094;11.900;2023-03-11T01:28:56;94759.56;;;1.75;82.07
11621;BME280;5866;49.094;11.900;2023-03-11T01:31:24;94758.31;;;1.79;82.45
11621;BME280;5866;49.094;11.900;2023-03-11T01:33:51;94768.09;;;1.77;81.69
11621;BME280;5866;49.094;11.900;2023-03-11T01:36:20;94776.34;;;1.82;83.07
11621;BME280;5866;49.094;11.900;2023-03-11T01:38:48;94778.00;;;1.74;82.33
11621;BME280;5866;49.094;11.900;2023-03-11T01:41:15;94772.66;;;1.66;82.18
11621;BME280;5866;49.094;11.900;2023-03-11T01:43:49;94760.72;;;1.63;83.43
11621;BME280;5866;49.094;11.900;2023-03-11T01:46:21;94772.91;;;1.72;84.23
11621;BME280;5866;49.094;11.900;2023-03-11T01:48:50;94746.00;;;1.62;82.96
11621;BME280;5866;49.094;11.900;2023-03-11T01:51:24;94788.50;;;1.64;84.37
11621;BME280;5866;49.094;11.900;2023-03-11T01:53:55;94768.00;;;1.69;85.26
11621;BME280;5866;49.094;11.900;2023-03-11T01:56:23;94798.78;;;1.75;86.28
11621;BME280;5866;49.094;11.900;2023-03-11T01:58:52;94804.84;;;1.66;86.03
11621;BME280;5866;49.094;11.900;2023-03-11T02:01:21;94795.22;;;1.67;85.89
11621;BME280;5866;49.094;11.900;2023-03-11T02:03:48;94797.31;;;1.63;86.21
11621;BME280;5866;49.094;11.900;2023-03-11T02:06:18;94808.72;;;1.62;85.35
11621;BME280;5866;49.094;11.900;2023-03-11T02:08:49;94803.50;;;1.62;84.93
11621;BME280;5866;49.094;11.900;2023-03-11T02:11:20;94815.19;;;1.58;85.93
11621;BME280;5866;49.094;11.900;2023-03-11T02:13:51;94830.97;;;1.66;89.18
11621;BME280;5866;49.094;11.900;2023-03-11T02:16:20;94832.09;;;1.63;89.00
11621;BME280;5866;49.094;11.900;2023-03-11T02:18:48;94820.09;;;1.71;88.70
11621;BME280;5866;49.094;11.900;2023-03-11T02:21:22;94826.06;;;1.63;90.61
11621;BME280;5866;49.094;11.900;2023-03-11T02:23:57;94829.47;;;1.63;89.92
11621;BME280;5866;49.094;11.900;2023-03-11T02:26:32;94823.34;;;1.55;91.36
11621;BME280;5866;49.094;11.900;2023-03-11T02:29:06;94821.81;;;1.43;93.37
11621;BME280;5866;49.094;11.900;2023-03-11T02:31:36;94837.38;;;1.44;94.07
11621;BME280;5866;49.094;11.900;2023-03-11T02:34:13;94835.47;;;1.37;94.31
11621;BME280;5866;49.094;11.900;2023-03-11T02:36:42;94802.75;;;1.33;94.09
11621;BME280;5866;49.094;11.900;2023-03-11T02:39:09;94818.72;;;1.30;94.42
11621;BME280;5866;49.094;11.900;2023-03-11T02:41:39;94831.34;;;1.34;93.41
11621;BME280;5866;49.094;11.900;2023-03-11T02:44:10;94829.00;;;1.31;95.33
11621;BME280;5866;49.094;11.900;2023-03-11T02:46:41;94834.38;;;1.30;96.42
11621;BME280;5866;49.094;11.900;2023-03-11T02:49:09;94817.63;;;1.23;100.00
11621;BME280;5866;49.094;11.900;2023-03-11T02:51:37;94822.44;;;1.18;100.00
11621;BME280;5866;49.094;11.900;2023-03-11T02:54:05;94828.06;;;1.23;100.00
11621;BME280;5866;49.094;11.900;2023-03-11T02:56:32;94829.69;;;1.24;100.00
11621;BME280;5866;49.094;11.900;2023-03-11T02:59:00;94828.59;;;1.36;100.00
11621;BME280;5866;49.094;11.900;2023-03-11T03:01:29;94826.38;;;1.41;100.00
11621;BME280;5866;49.094;11.900;2023-03-11T03:03:56;94822.53;;;1.82;100.00
11621;BME280;5866;49.094;11.900;2023-03-11T03:06:24;94834.78;;;1.81;100.00
11621;BME280;5866;49.094;11.900;2023-03-11T03:08:53;94829.16;;;1.76;99.84
11621;BME280;5866;49.094;11.900;2023-03-11T03:11:21;94841.38;;;1.39;100.00
11621;BME280;5866;49.094;11.900;2023-03-11T03:13:49;94846.66;;;1.66;100.00
11621;BME280;5866;49.094;11.900;2023-03-11T03:16:16;94841.25;;;1.31;100.00
11621;BME280;5866;49.094;11.900;2023-03-11T03:18:45;94857.72;;;1.41;100.00
11621;BME280;5866;49.094;11.900;2023-03-11T03:21:13;94848.66;;;1.35;100.00
11621;BME280;5866;49.094;11.900;2023-03-11T03:23:40;94855.53;;;1.27;100.00
11621;BME280;5866;49.094;11.900;2023-03-11T03:26:11;94864.03;;;1.48;100.00
11621;BME280;5866;49.094;11.900;2023-03-11T03:28:39;94866.69;;;1.29;100.00
11621;BME280;5866;49.094;11.900;2023-03-11T03:31:08;94867.91;;;1.25;100.00
11621;BME280;5866;49.094;11.900;2023-03-11T03:33:36;94873.97;;;1.25;100.00
11621;BME280;5866;49.094;11.900;2023-03-11T03:36:07;94880.16;;;1.15;100.00
11621;BME280;5866;49.094;11.900;2023-03-11T03:38:34;94878.94;;;1.19;100.00
11621;BME280;5866;49.094;11.900;2023-03-11T03:41:02;94888.50;;;1.28;100.00
11621;BME280;5866;49.094;11.900;2023-03-11T03:43:30;94880.28;;;1.23;100.00
11621;BME280;5866;49.094;11.900;2023-03-11T03:45:59;94891.28;;;1.07;100.00
11621;BME280;5866;49.094;11.900;2023-03-11T03:48:27;94889.38;;;1.00;100.00
11621;BME280;5866;49.094;11.900;2023-03-11T03:50:55;94899.00;;;1.09;100.00
11621;BME280;5866;49.094;11.900;2023-03-11T03:53:24;94899.25;;;1.15;100.00
11621;BME280;5866;49.094;11.900;2023-03-11T03:55:51;94903.34;;;0.99;100.00
11621;BME280;5866;49.094;11.900;2023-03-11T03:58:19;94902.28;;;1.01;100.00
11621;BME280;5866;49.094;11.900;2023-03-11T04:00:47;94908.88;;;0.96;100.00
11621;BME280;5866;49.094;11.900;2023-03-11T04:03:14;94924.00;;;0.92;100.00
11621;BME280;5866;49.094;11.900;2023-03-11T04:05:42;94915.03;;;0.95;100.00
11621;BME280;5866;49.094;11.900;2023-03-11T04:08:09;94916.03;;;1.13;100.00
11621;BME280;5866;49.094;11.900;2023-03-11T04:10:38;94919.72;;;0.91;100.00
11621;BME280;5866;49.094;11.900;2023-03-11T04:13:06;94923.00;;;0.93;100.00
11621;BME280;5866;49.094;11.900;2023-03-11T04:15:33;94927.69;;;0.90;100.00
11621;BME280;5866;49.094;11.900;2023-03-11T04:18:01;94930.56;;;0.77;100.00
11621;BME280;5866;49.094;11.900;2023-03-11T04:20:28;94933.28;;;0.75;100.00
11621;BME280;5866;49.094;11.900;2023-03-11T04:22:56;94931.38;;;0.77;100.00
11621;BME280;5866;49.094;11.900;2023-03-11T04:25:23;94941.03;;;0.96;100.00
11621;BME280;5866;49.094;11.900;2023-03-11T04:27:52;94929.19;;;0.73;100.00
11621;BME280;5866;49.094;11.900;2023-03-11T04:30:20;94946.47;;;0.64;100.00
11621;BME280;5866;49.094;11.900;2023-03-11T04:32:47;94956.59;;;0.67;100.00
11621;BME280;5866;49.094;11.900;2023-03-11T04:35:15;94959.66;;;0.72;100.00
11621;BME280;5866;49.094;11.900;2023-03-11T04:37:42;94955.63;;;0.59;100.00
11621;BME280;5866;49.094;11.900;2023-03-11T04:40:11;94961.41;;;0.62;100.00
11621;BME280;5866;49.094;11.900;2023-03-11T04:42:38;94968.41;;;0.62;100.00
11621;BME280;5866;49.094;11.900;2023-03-11T04:45:09;94955.03;;;0.86;100.00
11621;BME280;5866;49.094;11.900;2023-03-11T04:47:37;94970.47;;;0.58;100.00
11621;BME280;5866;49.094;11.900;2023-03-11T04:50:05;94974.03;;;0.57;100.00
11621;BME280;5866;49.094;11.900;2023-03-11T04:52:32;94969.47;;;0.50;100.00
11621;BME280;5866;49.094;11.900;2023-03-11T04:55:00;94976.59;;;0.48;100.00
11621;BME280;5866;49.094;11.900;2023-03-11T04:57:27;94987.38;;;0.64;100.00
11621;BME280;5866;49.094;11.900;2023-03-11T04:59:55;94985.16;;;0.59;100.00
11621;BME280;5866;49.094;11.900;2023-03-11T05:02:24;94987.66;;;0.70;100.00
11621;BME280;5866;49.094;11.900;2023-03-11T05:04:52;94985.44;;;0.66;100.00
11621;BME280;5866;49.094;11.900;2023-03-11T05:07:19;94998.28;;;0.48;100.00
11621;BME280;5866;49.094;11.900;2023-03-11T05:09:47;94987.56;;;0.42;100.00
11621;BME280;5866;49.094;11.900;2023-03-11T05:12:14;95008.13;;;0.35;100.00
11621;BME280;5866;49.094;11.900;2023-03-11T05:14:42;95014.50;;;0.52;100.00
11621;BME280;5866;49.094;11.900;2023-03-11T05:17:09;95016.06;;;0.34;100.00
11621;BME280;5866;49.094;11.900;2023-03-11T05:19:40;95016.84;;;0.55;100.00
11621;BME280;5866;49.094;11.900;2023-03-11T05:22:07;95024.38;;;0.48;100.00
11621;BME280;5866;49.094;11.900;2023-03-11T05:24:35;95026.59;;;0.53;100.00
11621;BME280;5866;49.094;11.900;2023-03-11T05:27:03;95022.72;;;0.47;100.00
11621;BME280;5866;49.094;11.900;2023-03-11T05:29:31;95045.50;;;0.45;100.00
11621;BME280;5866;49.094;11.900;2023-03-11T05:31:58;95043.59;;;0.47;100.00
11621;BME280;5866;49.094;11.900;2023-03-11T05:34:26;95052.50;;;0.45;100.00
11621;BME280;5866;49.094;11.900;2023-03-11T05:36:54;95053.97;;;0.38;100.00
11621;BME280;5866;49.094;11.900;2023-03-11T05:39:22;95058.50;;;0.15;100.00
11621;BME280;5866;49.094;11.900;2023-03-11T05:41:49;95063.66;;;0.26;100.00
11621;BME280;5866;49.094;11.900;2023-03-11T05:44:17;95059.19;;;0.38;100.00
11621;BME280;5866;49.094;11.900;2023-03-11T05:46:44;95059.84;;;0.10;100.00
11621;BME280;5866;49.094;11.900;2023-03-11T05:49:12;95064.78;;;0.13;100.00
11621;BME280;5866;49.094;11.900;2023-03-11T05:51:39;95065.91;;;0.10;100.00
11621;BME280;5866;49.094;11.900;2023-03-11T05:54:08;95047.56;;;0.21;100.00
11621;BME280;5866;49.094;11.900;2023-03-11T05:56:40;95062.78;;;0.16;100.00
11621;BME280;5866;49.094;11.900;2023-03-11T05:59:08;95053.28;;;0.15;100.00
11621;BME280;5866;49.094;11.900;2023-03-11T06:01:36;95044.25;;;0.19;100.00
11621;BME280;5866;49.094;11.900;2023-03-11T06:04:04;95056.19;;;0.42;100.00
11621;BME280;5866;49.094;11.900;2023-03-11T06:06:32;95065.44;;;0.26;100.00
11621;BME280;5866;49.094;11.900;2023-03-11T06:09:00;95060.28;;;0.35;100.00
11621;BME280;5866;49.094;11.900;2023-03-11T06:11:30;95067.13;;;0.36;100.00
11621;BME280;5866;49.094;11.900;2023-03-11T06:13:58;95061.50;;;0.31;100.00
11621;BME280;5866;49.094;11.900;2023-03-11T06:16:25;95066.63;;;0.42;100.00
11621;BME280;5866;49.094;11.900;2023-03-11T06:18:53;95060.97;;;0.37;100.00
11621;BME280;5866;49.094;11.900;2023-03-11T06:21:22;95069.41;;;0.50;100.00
11621;BME280;5866;49.094;11.900;2023-03-11T06:23:52;95069.22;;;0.42;100.00
11621;BME280;5866;49.094;11.900;2023-03-11T06:26:21;95073.66;;;0.51;100.00
11621;BME280;5866;49.094;11.900;2023-03-11T06:28:51;95078.66;;;0.54;100.00
11621;BME280;5866;49.094;11.900;2023-03-11T06:31:20;95093.84;;;0.49;100.00
11621;BME280;5866;49.094;11.900;2023-03-11T06:33:49;95082.53;;;0.39;100.00
11621;BME280;5866;49.094;11.900;2023-03-11T06:36:18;95103.13;;;0.42;100.00
11621;BME280;5866;49.094;11.900;2023-03-11T06:38:46;95103.97;;;0.43;100.00
11621;BME280;5866;49.094;11.900;2023-03-11T06:41:15;95111.53;;;0.66;100.00
11621;BME280;5866;49.094;11.900;2023-03-11T06:43:42;95116.72;;;0.66;100.00
11621;BME280;5866;49.094;11.900;2023-03-11T06:46:14;95113.91;;;0.79;100.00
11621;BME280;5866;49.094;11.900;2023-03-11T06:48:42;95115.09;;;0.96;100.00
11621;BME280;5866;49.094;11.900;2023-03-11T06:51:11;95126.97;;;0.79;100.00
11621;BME280;5866;49.094;11.900;2023-03-11T06:53:39;95126.66;;;0.72;100.00
11621;BME280;5866;49.094;11.900;2023-03-11T06:56:08;95129.31;;;0.61;100.00
11621;BME280;5866;49.094;11.900;2023-03-11T06:58:37;95132.28;;;0.47;100.00
11621;BME280;5866;49.094;11.900;2023-03-11T07:01:07;95130.91;;;0.53;100.00
11621;BME280;5866;49.094;11.900;2023-03-11T07:03:36;95137.72;;;0.44;100.00
11621;BME280;5866;49.094;11.900;2023-03-11T07:06:04;95133.47;;;0.43;100.00
11621;BME280;5866;49.094;11.900;2023-03-11T07:08:32;95135.06;;;0.55;100.00
11621;BME280;5866;49.094;11.900;2023-03-11T07:11:01;95141.44;;;0.62;100.00
11621;BME280;5866;49.094;11.900;2023-03-11T07:13:30;95142.31;;;1.03;100.00
11621;BME280;5866;49.094;11.900;2023-03-11T07:16:02;95148.25;;;0.84;100.00
11621;BME280;5866;49.094;11.900;2023-03-11T07:18:30;95150.41;;;1.00;100.00
11621;BME280;5866;49.094;11.900;2023-03-11T07:21:00;95153.59;;;1.43;100.00
11621;BME280;5866;49.094;11.900;2023-03-11T07:23:27;95156.94;;;1.64;100.00
11621;BME280;5866;49.094;11.900;2023-03-11T07:25:55;95154.91;;;1.87;100.00
11621;BME280;5866;49.094;11.900;2023-03-11T07:28:23;95151.22;;;2.08;100.00
11621;BME280;5866;49.094;11.900;2023-03-11T07:30:51;95166.66;;;2.11;98.21
11621;BME280;5866;49.094;11.900;2023-03-11T07:33:19;95159.94;;;1.50;100.00
11621;BME280;5866;49.094;11.900;2023-03-11T07:35:47;95180.94;;;1.39;100.00
11621;BME280;5866;49.094;11.900;2023-03-11T07:38:17;95172.59;;;1.15;100.00
11621;BME280;5866;49.094;11.900;2023-03-11T07:40:45;95173.13;;;1.09;100.00
11621;BME280;5866;49.094;11.900;2023-03-11T07:43:13;95186.69;;;1.33;100.00
11621;BME280;5866;49.094;11.900;2023-03-11T07:45:40;95186.91;;;1.60;100.00
11621;BME280;5866;49.094;11.900;2023-03-11T07:48:08;95184.84;;;1.24;99.69
11621;BME280;5866;49.094;11.900;2023-03-11T07:50:36;95195.34;;;1.33;100.00
11621;BME280;5866;49.094;11.900;2023-03-11T07:53:03;95199.50;;;1.36;100.00
11621;BME280;5866;49.094;11.900;2023-03-11T07:55:32;95208.47;;;1.13;100.00
11621;BME280;5866;49.094;11.900;2023-03-11T07:58:00;95208.34;;;1.54;100.00
11621;BME280;5866;49.094;11.900;2023-03-11T08:00:28;95208.88;;;1.48;97.53
11621;BME280;5866;49.094;11.900;2023-03-11T08:02:55;95213.38;;;1.36;100.00
11621;BME280;5866;49.094;11.900;2023-03-11T08:05:22;95228.44;;;1.53;100.00
11621;BME280;5866;49.094;11.900;2023-03-11T08:07:50;95217.53;;;1.88;97.19
11621;BME280;5866;49.094;11.900;2023-03-11T08:10:18;95228.38;;;2.62;94.44
11621;BME280;5866;49.094;11.900;2023-03-11T08:12:46;95233.97;;;3.51;86.80
11621;BME280;5866;49.094;11.900;2023-03-11T08:15:14;95228.72;;;3.05;83.19
11621;BME280;5866;49.094;11.900;2023-03-11T08:17:41;95230.97;;;3.37;84.07
11621;BME280;5866;49.094;11.900;2023-03-11T08:20:10;95227.50;;;2.71;89.70
11621;BME280;5866;49.094;11.900;2023-03-11T08:22:38;95233.72;;;2.70;89.21
11621;BME280;5866;49.094;11.900;2023-03-11T08:25:22;95240.94;;;1.99;92.25
11621;BME280;5866;49.094;11.900;2023-03-11T08:27:51;95232.81;;;1.53;97.95
11621;BME280;5866;49.094;11.900;2023-03-11T08:30:19;95234.06;;;1.98;98.25
11621;BME280;5866;49.094;11.900;2023-03-11T08:32:47;95243.66;;;3.41;85.08
11621;BME280;5866;49.094;11.900;2023-03-11T08:35:15;95233.63;;;3.27;86.11
11621;BME280;5866;49.094;11.900;2023-03-11T08:37:43;95247.78;;;3.80;77.72
11621;BME280;5866;49.094;11.900;2023-03-11T08:40:11;95235.53;;;3.98;78.38
11621;BME280;5866;49.094;11.900;2023-03-11T08:42:39;95241.44;;;3.46;77.40
11621;BME280;5866;49.094;11.900;2023-03-11T08:45:09;95256.03;;;2.55;90.80
11621;BME280;5866;49.094;11.900;2023-03-11T08:47:38;95249.25;;;1.74;92.31
11621;BME280;5866;49.094;11.900;2023-03-11T08:50:08;95246.66;;;1.74;95.56
11621;BME280;5866;49.094;11.900;2023-03-11T08:52:37;95265.16;;;2.01;96.94
11621;BME280;5866;49.094;11.900;2023-03-11T08:55:06;95268.00;;;1.79;94.66
11621;BME280;5866;49.094;11.900;2023-03-11T08:57:36;95272.13;;;1.42;97.41
11621;BME280;5866;49.094;11.900;2023-03-11T09:00:05;95292.44;;;1.69;100.00
11621;BME280;5866;49.094;11.900;2023-03-11T09:02:35;95280.94;;;2.30;94.64
11621;BME280;5866;49.094;11.900;2023-03-11T09:05:03;95292.00;;;2.53;93.02
11621;BME280;5866;49.094;11.900;2023-03-11T09:07:30;95296.00;;;2.47;95.00
11621;BME280;5866;49.094;11.900;2023-03-11T09:09:58;95308.38;;;1.96;96.64
11621;BME280;5866;49.094;11.900;2023-03-11T09:12:25;95305.06;;;1.63;99.50
11621;BME280;5866;49.094;11.900;2023-03-11T09:14:53;95314.38;;;1.87;100.00
11621;BME280;5866;49.094;11.900;2023-03-11T09:17:21;95315.75;;;1.81;100.00
11621;BME280;5866;49.094;11.900;2023-03-11T09:19:50;95326.47;;;1.78;98.89
11621;BME280;5866;49.094;11.900;2023-03-11T09:22:17;95326.00;;;2.03;99.41
11621;BME280;5866;49.094;11.900;2023-03-11T09:24:45;95323.47;;;1.11;100.00
11621;BME280;5866;49.094;11.900;2023-03-11T09:27:12;95325.47;;;0.98;100.00
11621;BME280;5866;49.094;11.900;2023-03-11T09:29:41;95325.97;;;0.92;100.00
11621;BME280;5866;49.094;11.900;2023-03-11T09:32:11;95339.38;;;0.88;100.00
11621;BME280;5866;49.094;11.900;2023-03-11T09:34:38;95348.25;;;0.64;100.00
11621;BME280;5866;49.094;11.900;2023-03-11T09:37:07;95352.00;;;0.71;100.00
11621;BME280;5866;49.094;11.900;2023-03-11T09:39:36;95358.00;;;0.51;100.00
11621;BME280;5866;49.094;11.900;2023-03-11T09:42:13;95361.63;;;0.28;100.00
11621;BME280;5866;49.094;11.900;2023-03-11T09:44:50;95361.25;;;0.33;100.00
11621;BME280;5866;49.094;11.900;2023-03-11T09:47:37;95363.50;;;0.26;100.00
11621;BME280;5866;49.094;11.900;2023-03-11T09:50:19;95371.25;;;0.59;100.00
11621;BME280;5866;49.094;11.900;2023-03-11T09:53:02;95360.94;;;0.69;100.00
11621;BME280;5866;49.094;11.900;2023-03-11T09:55:41;95375.84;;;0.24;100.00
11621;BME280;5866;49.094;11.900;2023-03-11T09:58:12;95376.56;;;0.15;100.00
11621;BME280;5866;49.094;11.900;2023-03-11T10:00:42;95375.75;;;0.68;100.00
11621;BME280;5866;49.094;11.900;2023-03-11T10:03:26;95368.72;;;1.01;100.00
11621;BME280;5866;49.094;11.900;2023-03-11T10:06:02;95361.13;;;1.09;100.00
11621;BME280;5866;49.094;11.900;2023-03-11T10:08:37;95358.63;;;1.28;100.00
11621;BME280;5866;49.094;11.900;2023-03-11T10:11:15;95353.13;;;1.72;100.00
11621;BME280;5866;49.094;11.900;2023-03-11T10:13:47;95346.97;;;2.13;100.00
11621;BME280;5866;49.094;11.900;2023-03-11T10:16:22;95347.97;;;2.21;100.00
11621;BME280;5866;49.094;11.900;2023-03-11T10:18:58;95347.69;;;2.93;95.75
11621;BME280;5866;49.094;11.900;2023-03-11T10:21:39;95350.97;;;2.85;92.78
11621;BME280;5866;49.094;11.900;2023-03-11T10:24:22;95353.50;;;2.28;93.35
11621;BME280;5866;49.094;11.900;2023-03-11T10:27:02;95356.19;;;2.47;95.27
11621;BME280;5866;49.094;11.900;2023-03-11T10:29:41;95354.84;;;2.72;94.87
11621;BME280;5866;49.094;11.900;2023-03-11T10:32:14;95357.59;;;2.80;90.54
11621;BME280;5866;49.094;11.900;2023-03-11T10:34:46;95362.44;;;2.94;88.29
11621;BME280;5866;49.094;11.900;2023-03-11T10:37:18;95359.09;;;2.73;91.10
11621;BME280;5866;49.094;11.900;2023-03-11T10:39:49;95364.38;;;2.82;92.77
11621;BME280;5866;49.094;11.900;2023-03-11T10:42:19;95359.69;;;3.05;85.85
11621;BME280;5866;49.094;11.900;2023-03-11T10:44:48;95368.59;;;3.50;88.99
11621;BME280;5866;49.094;11.900;2023-03-11T10:47:19;95368.50;;;3.42;86.79
11621;BME280;5866;49.094;11.900;2023-03-11T10:49:48;95368.59;;;3.50;81.71
11621;BME280;5866;49.094;11.900;2023-03-11T10:52:16;95363.63;;;3.66;77.93
11621;BME280;5866;49.094;11.900;2023-03-11T10:54:45;95364.25;;;3.97;76.61
11621;BME280;5866;49.094;11.900;2023-03-11T10:57:23;95368.22;;;3.26;71.33
11621;BME280;5866;49.094;11.900;2023-03-11T10:59:52;95353.44;;;3.44;67.40
11621;BME280;5866;49.094;11.900;2023-03-11T11:02:23;95353.88;;;3.40;68.79
11621;BME280;5866;49.094;11.900;2023-03-11T11:05:26;95355.19;;;4.19;64.41
11621;BME280;5866;49.094;11.900;2023-03-11T11:08:03;95351.31;;;5.12;62.31
11621;BME280;5866;49.094;11.900;2023-03-11T11:10:31;95350.69;;;4.83;58.47
11621;BME280;5866;49.094;11.900;2023-03-11T11:13:04;95343.75;;;5.96;60.82
11621;BME280;5866;49.094;11.900;2023-03-11T11:15:52;95353.16;;;4.67;58.10
11621;BME280;5866;49.094;11.900;2023-03-11T11:18:22;95356.53;;;3.95;61.69
11621;BME280;5866;49.094;11.900;2023-03-11T11:20:58;95358.69;;;3.54;62.39
11621;BME280;5866;49.094;11.900;2023-03-11T11:23:32;95358.84;;;3.23;65.10
11621;BME280;5866;49.094;11.900;2023-03-11T11:26:03;95364.06;;;2.85;70.48
11621;BME280;5866;49.094;11.900;2023-03-11T11:28:33;95361.13;;;2.40;76.22
11621;BME280;5866;49.094;11.900;2023-03-11T11:31:03;95371.63;;;2.60;77.67
11621;BME280;5866;49.094;11.900;2023-03-11T11:33:32;95361.69;;;3.68;73.40
11621;BME280;5866;49.094;11.900;2023-03-11T11:36:11;95365.50;;;3.83;69.59
11621;BME280;5866;49.094;11.900;2023-03-11T11:38:41;95371.66;;;2.98;75.49
11621;BME280;5866;49.094;11.900;2023-03-11T11:41:14;95375.06;;;2.11;82.75
11621;BME280;5866;49.094;11.900;2023-03-11T11:43:47;95380.91;;;2.03;87.53
11621;BME280;5866;49.094;11.900;2023-03-11T11:46:20;95380.31;;;2.20;88.86
11621;BME280;5866;49.094;11.900;2023-03-11T11:48:59;95389.22;;;2.48;86.77
11621;BME280;5866;49.094;11.900;2023-03-11T11:51:32;95378.22;;;2.54;83.44
11621;BME280;5866;49.094;11.900;2023-03-11T11:54:05;95374.28;;;2.29;85.35
11621;BME280;5866;49.094;11.900;2023-03-11T11:56:36;95385.19;;;2.34;81.43
11621;BME280;5866;49.094;11.900;2023-03-11T11:59:14;95389.22;;;2.38;81.93
11621;BME280;5866;49.094;11.900;2023-03-11T12:01:48;95368.63;;;2.83;80.09
11621;BME280;5866;49.094;11.900;2023-03-11T12:04:45;95382.28;;;3.06;83.29
11621;BME280;5866;49.094;11.900;2023-03-11T12:07:23;95374.97;;;3.38;79.80
11621;BME280;5866;49.094;11.900;2023-03-11T12:09:59;95373.03;;;3.40;74.01
11621;BME280;5866;49.094;11.900;2023-03-11T12:13:05;95377.06;;;2.87;77.17
11621;BME280;5866;49.094;11.900;2023-03-11T12:15:45;95380.78;;;3.13;79.28
11621;BME280;5866;49.094;11.900;2023-03-11T12:18:18;95380.88;;;2.64;79.58
11621;BME280;5866;49.094;11.900;2023-03-11T12:20:53;95385.63;;;2.39;80.73
11621;BME280;5866;49.094;11.900;2023-03-11T12:23:31;95388.44;;;1.67;84.60
11621;BME280;5866;49.094;11.900;2023-03-11T12:26:14;95383.44;;;1.54;86.31
11621;BME280;5866;49.094;11.900;2023-03-11T12:28:47;95379.91;;;1.65;85.56
11621;BME280;5866;49.094;11.900;2023-03-11T12:31:19;95380.66;;;1.76;84.90
11621;BME280;5866;49.094;11.900;2023-03-11T12:33:49;95377.28;;;1.85;85.22
11621;BME280;5866;49.094;11.900;2023-03-11T12:36:24;95390.97;;;1.98;84.16
11621;BME280;5866;49.094;11.900;2023-03-11T12:38:55;95383.78;;;2.30;84.50
11621;BME280;5866;49.094;11.900;2023-03-11T12:41:28;95383.44;;;2.45;78.00
11621;BME280;5866;49.094;11.900;2023-03-11T12:44:01;95378.69;;;2.88;75.28
11621;BME280;5866;49.094;11.900;2023-03-11T12:46:59;95377.16;;;2.76;72.75
11621;BME280;5866;49.094;11.900;2023-03-11T12:49:27;95379.53;;;3.17;68.43
11621;BME280;5866;49.094;11.900;2023-03-11T12:52:01;95369.47;;;2.74;69.07
11621;BME280;5866;49.094;11.900;2023-03-11T12:54:30;95372.81;;;2.36;70.91
11621;BME280;5866;49.094;11.900;2023-03-11T12:57:00;95372.31;;;2.12;73.36
11621;BME280;5866;49.094;11.900;2023-03-11T12:59:46;95370.94;;;2.18;74.31
11621;BME280;5866;49.094;11.900;2023-03-11T13:02:35;95375.06;;;2.51;74.26
11621;BME280;5866;49.094;11.900;2023-03-11T13:05:15;95373.97;;;2.53;76.21
11621;BME280;5866;49.094;11.900;2023-03-11T13:07:47;95364.28;;;2.34;73.79
11621;BME280;5866;49.094;11.900;2023-03-11T13:10:34;95378.13;;;2.25;75.02
11621;BME280;5866;49.094;11.900;2023-03-11T13:13:22;95377.06;;;2.28;75.80
11621;BME280;5866;49.094;11.900;2023-03-11T13:15:49;95371.00;;;2.37;78.16
11621;BME280;5866;49.094;11.900;2023-03-11T13:18:21;95379.59;;;2.49;74.71
11621;BME280;5866;49.094;11.900;2023-03-11T13:20:54;95383.38;;;2.35;75.14